Time;durP1;ratioP1;P1;durP2;ratioP2;P2;SDS_P1;SDS_P2;PMS_P1;PMS_P2;Temp;Humidity;BMP_temperature;BMP_pressure;BME280_temperature;BME280_humidity;BME280_pressure;Samples;Min_cycle;Max_cycle;Signal;HPM_P1;HPM_P2
2021/12/27 00:01:14;;;;;;;28.32;13.53;;;;;;;-5.28;83.33;140995.38;1617535;89;21086;-71
2021/12/27 00:03:41;;;;;;;25.97;13.55;;;;;;;-5.32;83.75;140985.47;1617433;89;21646;-69
2021/12/27 00:06:09;;;;;;;27.50;12.55;;;;;;;-5.30;83.97;140991.66;1617305;89;21119;-69
2021/12/27 00:08:42;;;;;;;26.00;12.35;;;;;;;-5.22;84.32;141008.97;1617482;87;21100;-69
2021/12/27 00:11:12;;;;;;;27.25;12.03;;;;;;;-5.11;84.19;141037.44;1617598;87;21073;-73
2021/12/27 00:13:40;;;;;;;24.37;13.00;;;;;;;-5.10;84.19;141039.91;1617271;87;22389;-68
2021/12/27 00:16:08;;;;;;;27.30;12.40;;;;;;;-5.14;84.23;141030.03;1617415;87;21181;-71
2021/12/27 00:18:37;;;;;;;27.15;13.10;;;;;;;-5.18;84.53;141020.12;1617718;87;21152;-68
2021/12/27 00:21:04;;;;;;;27.90;13.53;;;;;;;-5.10;84.75;141038.67;1587279;90;21072;-70
2021/12/27 00:23:33;;;;;;;25.85;12.82;;;;;;;-5.00;84.67;141062.19;1587246;89;21107;-70
2021/12/27 00:26:01;;;;;;;25.65;12.40;;;;;;;-4.89;84.45;141089.39;1572613;89;21070;-68
2021/12/27 00:28:30;;;;;;;29.35;13.08;;;;;;;-4.90;84.23;141086.94;1612241;88;21152;-68
2021/12/27 00:30:58;;;;;;;23.12;12.37;;;;;;;-4.92;84.20;141083.20;1610954;88;21061;-69
2021/12/27 00:33:26;;;;;;;24.43;10.32;;;;;;;-4.92;84.16;141081.97;1610752;88;21081;-67
2021/12/27 00:35:54;;;;;;;27.50;12.47;;;;;;;-4.94;84.23;141077.02;1610772;88;21125;-69
2021/12/27 00:38:20;;;;;;;24.07;11.63;;;;;;;-5.04;84.33;141054.78;1610979;88;21105;-69
2021/12/27 00:40:47;;;;;;;22.98;12.25;;;;;;;-5.11;84.26;141037.44;1610820;89;21050;-72
2021/12/27 00:43:16;;;;;;;22.73;11.18;;;;;;;-5.18;84.57;141020.12;1609263;88;21081;-77
2021/12/27 00:45:44;;;;;;;28.92;13.10;;;;;;;-5.22;84.68;141008.97;1610532;88;21081;-74
2021/12/27 00:48:10;;;;;;;26.17;12.25;;;;;;;-5.31;84.97;140987.97;1609979;88;21112;-75
2021/12/27 00:50:37;;;;;;;29.82;12.15;;;;;;;-5.26;85.25;141001.56;1610841;88;21190;-74
2021/12/27 00:53:04;;;;;;;22.77;12.75;;;;;;;-5.19;85.18;141016.39;1585295;89;21601;-72
2021/12/27 00:55:31;;;;;;;28.07;12.63;;;;;;;-5.05;85.32;141052.28;1612693;88;21089;-73
2021/12/27 00:57:57;;;;;;;27.22;12.28;;;;;;;-4.87;85.07;141094.34;1611978;88;21070;-78
2021/12/27 01:00:25;;;;;;;30.30;12.18;;;;;;;-4.71;84.78;141133.92;1584691;89;21577;-78
2021/12/27 01:02:54;;;;;;;28.75;13.78;;;;;;;-4.62;84.34;141156.22;1611281;88;21535;-75
2021/12/27 01:05:23;;;;;;;30.27;13.28;;;;;;;-4.51;84.18;141180.97;1611480;88;21595;-74
2021/12/27 01:07:52;;;;;;;32.58;13.68;;;;;;;-4.38;84.10;141213.14;1585185;89;21070;-76
2021/12/27 01:10:45;;;;;;;28.70;14.95;;;;;;;-4.25;83.65;141244.09;1611500;88;21073;-75
2021/12/27 01:18:04;;;;;;;48.83;24.72;;;;;;;-4.03;82.14;141297.34;1611466;88;21149;-74
2021/12/27 01:20:32;;;;;;;44.35;22.20;;;;;;;-4.06;81.67;141289.94;1610921;88;21118;-77
2021/12/27 01:22:58;;;;;;;49.20;24.72;;;;;;;-4.14;81.48;141271.36;1584657;89;21130;-73
2021/12/27 01:25:25;;;;;;;41.15;20.82;;;;;;;-4.14;81.43;141271.36;1611031;88;21022;-72
2021/12/27 01:27:52;;;;;;;48.25;23.10;;;;;;;-4.11;81.27;141277.55;1610931;89;21210;-73
2021/12/27 01:30:21;;;;;;;47.65;23.67;;;;;;;-4.13;81.10;141272.59;1582503;88;21119;-73
2021/12/27 01:32:55;;;;;;;51.63;21.90;;;;;;;-4.10;80.98;141280.00;1608807;88;21114;-71
2021/12/27 01:35:22;;;;;;;43.48;21.07;;;;;;;-4.06;80.74;141289.94;1582351;89;21062;-72
2021/12/27 01:37:50;;;;;;;41.65;22.05;;;;;;;-4.02;80.70;141299.81;1608938;88;21058;-74
2021/12/27 01:40:20;;;;;;;48.55;23.65;;;;;;;-3.91;80.63;141327.08;1582466;91;21545;-72
2021/12/27 01:43:07;;;;;;;47.50;21.12;;;;;;;-3.86;80.29;141339.47;1609061;88;21129;-76
2021/12/27 01:45:38;;;;;;;48.73;22.98;;;;;;;-3.82;79.99;141349.34;1582445;89;21105;-71
2021/12/27 01:48:07;;;;;;;57.33;26.07;;;;;;;-3.79;79.33;141356.81;1609219;88;21104;-73
2021/12/27 01:50:39;;;;;;;49.85;22.10;;;;;;;-3.79;79.31;141355.53;1608721;88;21375;-72
2021/12/27 01:53:06;;;;;;;;;;;;;;;-3.75;79.15;141365.47;1583778;89;21126;-72
2021/12/27 01:55:33;;;;;;;48.87;22.13;;;;;;;-3.75;78.79;141365.47;1608924;88;20115;-70
2021/12/27 01:58:00;;;;;;;52.98;24.12;;;;;;;-3.77;78.51;141361.73;1608942;89;21051;-72
2021/12/27 02:00:28;;;;;;;50.65;23.77;;;;;;;-3.78;78.63;141359.28;1582258;89;21078;-69
2021/12/27 02:02:54;;;;;;;48.17;23.60;;;;;;;-3.73;78.52;141371.66;1608957;89;21579;-69
2021/12/27 02:05:21;;;;;;;49.50;22.00;;;;;;;-3.69;78.54;141379.08;1608843;89;21077;-68
2021/12/27 02:07:48;;;;;;;41.37;19.80;;;;;;;-3.64;78.16;141391.47;1582363;89;21099;-66
2021/12/27 02:10:14;;;;;;;38.95;19.42;;;;;;;-3.67;78.03;141385.28;1608872;88;21571;-67
2021/12/27 02:12:44;;;;;;;43.98;21.17;;;;;;;-3.71;78.06;141375.39;1582290;91;21127;-67
2021/12/27 02:15:12;;;;;;;40.43;19.85;;;;;;;-3.74;78.28;141369.20;1608905;88;21098;-66
2021/12/27 02:17:41;;;;;;;38.70;17.87;;;;;;;-3.69;78.28;141379.08;1582266;89;21146;-67
2021/12/27 02:20:22;;;;;;;47.17;20.50;;;;;;;-3.74;78.13;141369.20;1608861;88;21105;-67
2021/12/27 02:22:53;;;;;;;38.33;19.67;;;;;;;-3.85;78.16;141341.92;1582326;89;21123;-65
2021/12/27 02:25:19;;;;;;;32.33;18.30;;;;;;;-3.82;78.61;141349.34;1608901;89;21042;-65
2021/12/27 02:27:46;;;;;;;32.28;16.95;;;;;;;-3.81;78.39;141351.84;1582446;89;21111;-65
2021/12/27 02:30:19;;;;;;;28.30;15.28;;;;;;;-3.87;78.57;141335.73;1600085;88;21102;-69
2021/12/27 02:32:50;;;;;;;29.23;15.32;;;;;;;-3.98;78.85;141309.73;1597738;89;21070;-70
2021/12/27 02:35:30;;;;;;;28.60;15.30;;;;;;;-4.06;79.14;141291.16;1597704;89;21043;-70
2021/12/27 02:37:59;;;;;;;29.95;15.00;;;;;;;-4.22;79.41;141252.78;1597763;89;21603;-73
2021/12/27 02:40:30;;;;;;;28.30;15.28;;;;;;;-4.27;80.01;141240.41;1597933;89;21038;-75
2021/12/27 02:43:15;;;;;;;30.17;14.20;;;;;;;-4.22;80.40;141252.78;1597772;89;21604;-81
2021/12/27 02:45:48;;;;;;;28.07;14.00;;;;;;;-4.32;80.39;141228.03;1598025;89;21015;-77
2021/12/27 02:48:17;;;;;;;24.12;13.35;;;;;;;-4.50;80.83;141183.42;1597901;89;21070;-80
2021/12/27 02:50:47;;;;;;;23.30;13.43;;;;;;;-4.54;81.39;141173.56;1597886;89;21098;-76
2021/12/27 02:53:15;;;;;;;30.30;14.65;;;;;;;-4.63;81.66;141153.77;1597982;89;21074;-81
2021/12/27 02:55:44;;;;;;;28.47;14.90;;;;;;;-4.63;82.14;141153.77;1597882;90;21551;-70
2021/12/27 02:58:10;;;;;;;29.95;14.95;;;;;;;-4.61;82.19;141158.67;1597853;89;21102;-79
2021/12/27 03:00:43;;;;;;;27.90;14.90;;;;;;;-4.60;82.58;141161.19;1574551;91;21566;-75
2021/12/27 03:03:11;;;;;;;30.88;15.25;;;;;;;-4.59;82.59;141163.63;1574394;91;21043;-72
2021/12/27 03:05:38;;;;;;;30.15;15.70;;;;;;;-4.55;82.98;141171.05;1597926;90;21062;-77
2021/12/27 03:08:05;;;;;;;33.18;16.67;;;;;;;-4.46;83.08;141193.34;1597900;89;21620;-74
2021/12/27 03:10:34;;;;;;;28.90;16.25;;;;;;;-4.35;83.08;141220.61;1574758;91;21508;-75
2021/12/27 03:13:03;;;;;;;29.15;15.03;;;;;;;-4.21;83.04;141254.02;1574541;90;21039;-75
2021/12/27 03:15:30;;;;;;;28.30;16.20;;;;;;;-4.09;82.70;141283.73;1597826;89;21103;-72
2021/12/27 03:17:56;;;;;;;30.23;16.23;;;;;;;-4.02;82.51;141299.81;1597860;89;21600;-72
2021/12/27 03:20:27;;;;;;;32.93;15.80;;;;;;;-3.96;82.28;141314.70;1597853;89;21118;-72
2021/12/27 03:22:54;;;;;;;31.45;15.53;;;;;;;-3.95;81.91;141318.38;1597974;89;21054;-73
2021/12/27 03:25:24;;;;;;;26.70;15.28;;;;;;;-4.03;81.67;141297.34;1597878;89;21058;-66
2021/12/27 03:27:52;;;;;;;28.65;14.30;;;;;;;-4.17;81.79;141263.94;1597579;89;21042;-70
2021/12/27 03:30:23;;;;;;;30.37;16.45;;;;;;;-4.35;81.95;141220.61;1597630;89;21117;-70
2021/12/27 03:32:52;;;;;;;29.63;15.08;;;;;;;-4.44;82.42;141198.31;1597546;89;21509;-68
2021/12/27 03:35:25;;;;;;;25.90;15.05;;;;;;;-4.45;82.61;141197.08;1597652;89;21082;-70
2021/12/27 03:37:53;;;;;;;28.95;14.00;;;;;;;-4.44;82.79;141198.31;1597354;89;21114;-74
2021/12/27 03:40:21;;;;;;;26.77;13.80;;;;;;;-4.45;82.95;141195.80;1598014;89;21126;-70
2021/12/27 03:42:52;;;;;;;26.70;14.07;;;;;;;-4.51;83.11;141182.20;1597614;90;21119;-72
2021/12/27 03:45:27;;;;;;;31.85;16.85;;;;;;;-4.59;83.30;141163.63;1597893;89;21082;-71
2021/12/27 03:47:55;;;;;;;26.82;14.43;;;;;;;-4.63;83.57;141153.77;1597014;89;21071;-69
2021/12/27 03:50:24;;;;;;;29.12;16.15;;;;;;;-4.67;83.78;141143.84;1597666;89;21114;-70
2021/12/27 03:52:54;;;;;;;26.90;14.13;;;;;;;-4.69;83.90;141138.88;1597443;89;21051;-69
2021/12/27 03:55:22;;;;;;;25.75;14.65;;;;;;;-4.67;84.07;141143.84;1597620;89;21121;-69
2021/12/27 03:57:53;;;;;;;24.05;14.53;;;;;;;-4.68;83.94;141140.11;1597755;89;21190;-69
2021/12/27 04:02:56;;;;;;;24.80;13.80;;;;;;;-4.57;84.18;141166.14;1597625;89;21231;-70
2021/12/27 04:05:42;;;;;;;28.32;15.05;;;;;;;-4.51;84.06;141180.97;1597951;89;21078;-68
2021/12/27 04:11:51;;;;;;;;;;;;;;;-4.41;84.08;141205.72;1599964;89;21532;-67
2021/12/27 04:14:18;;;;;;;28.20;14.53;;;;;;;-4.25;83.79;141244.09;1597814;90;20103;-66
2021/12/27 04:16:46;;;;;;;31.68;15.25;;;;;;;-4.20;83.29;141256.47;1597626;89;21074;-67
2021/12/27 04:19:14;;;;;;;28.10;14.50;;;;;;;-4.30;83.11;141232.98;1597844;89;21024;-71
2021/12/27 04:21:40;;;;;;;31.05;15.50;;;;;;;-4.41;83.13;141206.95;1597841;89;21047;-68
2021/12/27 04:24:07;;;;;;;27.85;15.40;;;;;;;-4.51;83.33;141180.97;1598020;89;21058;-73
2021/12/27 04:26:33;;;;;;;28.62;14.80;;;;;;;-4.44;83.91;141198.31;1598317;89;21110;-74
2021/12/27 04:29:00;;;;;;;33.33;16.10;;;;;;;-4.36;83.75;141219.34;1598051;89;21600;-74
2021/12/27 04:31:26;;;;;;;28.95;15.28;;;;;;;-4.33;83.58;141225.53;1586656;89;21124;-69
2021/12/27 04:33:53;;;;;;;26.30;14.43;;;;;;;-4.27;83.61;141240.41;1613066;87;21088;-72
2021/12/27 04:36:20;;;;;;;30.35;14.70;;;;;;;-4.23;83.26;141250.28;1586470;90;21058;-74
2021/12/27 04:38:46;;;;;;;30.77;17.27;;;;;;;-4.21;83.24;141255.25;1613230;87;21563;-72
2021/12/27 04:41:17;;;;;;;24.90;13.95;;;;;;;-4.19;83.05;141260.20;1586630;89;21063;-70
2021/12/27 04:43:45;;;;;;;25.12;13.58;;;;;;;-4.46;82.27;141193.34;1613330;87;21069;-68
2021/12/27 04:46:11;;;;;;;26.52;14.70;;;;;;;-4.83;82.91;141104.27;1586557;90;21067;-63
2021/12/27 04:48:39;;;;;;;22.52;13.25;;;;;;;-5.10;83.65;141039.91;1612938;88;21159;-64
2021/12/27 04:51:05;;;;;;;25.82;14.03;;;;;;;-5.29;84.71;140994.16;1586445;89;21079;-68
2021/12/27 04:53:33;;;;;;;22.90;13.53;;;;;;;-5.47;85.38;140950.88;1613019;88;21089;-67
2021/12/27 04:56:00;;;;;;;26.77;14.50;;;;;;;-5.53;86.17;140934.78;1586530;89;21074;-68
2021/12/27 04:58:26;;;;;;;32.10;17.25;;;;;;;-5.61;86.84;140915.00;1613029;87;21081;-70
2021/12/27 05:00:53;;;;;;;31.05;18.05;;;;;;;-5.74;87.76;140885.31;1586505;89;21569;-68
2021/12/27 05:03:19;;;;;;;34.38;17.50;;;;;;;-5.81;88.66;140868.00;1613167;87;21106;-69
2021/12/27 05:05:47;;;;;;;43.05;19.40;;;;;;;-5.87;89.06;140851.97;1586684;89;21099;-68
2021/12/27 05:08:14;;;;;;;39.05;19.12;;;;;;;-5.90;89.73;140847.00;1612981;87;21081;-68
2021/12/27 05:10:41;;;;;;;39.50;20.75;;;;;;;-5.87;89.80;140851.97;1586558;89;21036;-73
2021/12/27 05:13:07;;;;;;;32.13;17.55;;;;;;;-5.69;90.25;140896.45;1613252;87;21109;-72
2021/12/27 05:15:34;;;;;;;32.35;18.42;;;;;;;-5.63;89.81;140911.28;1586572;89;21051;-71
2021/12/27 05:18:00;;;;;;;33.48;18.45;;;;;;;-5.70;89.93;140895.23;1613293;87;21198;-73
2021/12/27 05:20:27;;;;;;;37.85;21.30;;;;;;;-5.71;89.95;140892.72;1586639;89;21058;-72
2021/12/27 05:22:54;;;;;;;36.60;20.45;;;;;;;-5.68;90.22;140898.91;1613205;89;21053;-71
2021/12/27 05:25:20;;;;;;;43.70;22.77;;;;;;;-5.49;90.61;140945.91;1586719;89;21095;-74
2021/12/27 05:27:46;;;;;;;31.27;19.52;;;;;;;-5.22;90.64;141010.20;1613216;87;21057;-77
2021/12/27 05:30:14;;;;;;;35.55;20.85;;;;;;;-5.07;89.76;141047.31;1584856;88;21129;-65
2021/12/27 05:32:44;;;;;;;42.05;23.15;;;;;;;-5.22;89.19;141010.20;1582218;89;21127;-65
2021/12/27 05:35:12;;;;;;;46.45;24.95;;;;;;;-5.42;89.66;140960.73;1583126;89;21086;-66
2021/12/27 05:37:40;;;;;;;45.80;25.88;;;;;;;-5.46;90.01;140953.31;1567281;90;21130;-76
2021/12/27 05:40:13;;;;;;;41.98;23.30;;;;;;;-5.39;90.23;140968.14;1567275;90;21058;-71
2021/12/27 05:42:39;;;;;;;43.15;24.55;;;;;;;-5.46;90.26;140952.09;1567243;90;21130;-69
2021/12/27 05:45:08;;;;;;;42.75;23.07;;;;;;;-5.66;90.50;140903.86;1567299;90;21568;-67
2021/12/27 05:47:35;;;;;;;35.35;20.15;;;;;;;-5.71;91.10;140892.72;1567190;90;21588;-69
2021/12/27 05:50:06;;;;;;;42.38;22.52;;;;;;;-5.78;91.54;140875.41;1567136;90;21062;-69
2021/12/27 05:52:33;;;;;;;38.70;20.35;;;;;;;-5.77;92.06;140877.91;1567096;90;21115;-70
2021/12/27 05:54:59;;;;;;;40.35;20.70;;;;;;;-5.83;92.08;140861.83;1567140;90;21146;-72
2021/12/27 05:57:27;;;;;;;38.67;23.18;;;;;;;-5.92;92.31;140842.06;1566935;90;21584;-68
2021/12/27 05:59:53;;;;;;;32.70;20.82;;;;;;;-6.04;92.64;140812.42;1567206;90;21050;-70
2021/12/27 06:02:20;;;;;;;36.00;21.20;;;;;;;-6.12;92.79;140793.89;1566932;90;21070;-70
2021/12/27 06:04:47;;;;;;;37.23;21.10;;;;;;;-6.17;93.22;140780.30;1567161;90;21187;-71
2021/12/27 06:07:13;;;;;;;43.87;22.55;;;;;;;-6.16;93.20;140783.98;1567111;90;21077;-69
2021/12/27 06:09:41;;;;;;;36.83;21.60;;;;;;;-6.17;93.59;140780.30;1567186;90;21095;-71
2021/12/27 06:12:08;;;;;;;40.75;23.67;;;;;;;-6.25;94.09;140760.55;1582821;91;21091;-68
2021/12/27 06:14:35;;;;;;;44.33;22.98;;;;;;;-6.28;94.55;140753.09;1583004;90;21043;-67
2021/12/27 06:17:03;;;;;;;41.33;22.45;;;;;;;-6.31;95.12;140745.69;1566956;92;21098;-69
2021/12/27 06:19:30;;;;;;;49.55;27.95;;;;;;;-6.34;95.56;140739.50;1567137;90;21043;-70
2021/12/27 06:22:01;;;;;;;71.00;32.60;;;;;;;-6.37;96.21;140733.33;1566919;90;21099;-69
2021/12/27 06:24:28;;;;;;;89.87;37.85;;;;;;;-6.36;96.67;140734.56;1567049;90;21086;-68
2021/12/27 06:26:54;;;;;;;49.83;26.23;;;;;;;-6.36;96.84;140735.83;1567219;90;21111;-67
2021/12/27 06:29:20;;;;;;;47.25;24.92;;;;;;;-6.21;97.07;140770.41;1567219;90;21659;-72
2021/12/27 06:31:47;;;;;;;43.95;23.57;;;;;;;-6.10;97.01;140796.39;1565058;90;21123;-70
2021/12/27 06:34:14;;;;;;;50.50;25.00;;;;;;;-6.13;96.80;140790.16;1615250;87;21515;-70
2021/12/27 06:36:40;;;;;;;49.67;26.50;;;;;;;-6.10;96.97;140797.63;1615254;87;21107;-69
2021/12/27 06:39:08;;;;;;;37.88;21.57;;;;;;;-5.93;97.18;140839.59;1615282;87;21049;-70
2021/12/27 06:41:36;;;;;;;43.92;23.30;;;;;;;-5.72;97.03;140889.05;1615084;87;21121;-69
2021/12/27 06:44:03;;;;;;;42.55;23.92;;;;;;;-5.63;96.64;140910.05;1615233;89;21110;-73
2021/12/27 06:46:31;;;;;;;43.78;20.17;;;;;;;-5.50;96.49;140943.41;1615225;87;21077;-72
2021/12/27 06:48:58;;;;;;;43.98;24.57;;;;;;;-5.38;96.12;140970.64;1615142;87;21057;-65
2021/12/27 06:51:24;;;;;;;41.18;24.12;;;;;;;-5.52;95.44;140937.23;1614911;87;21623;-73
2021/12/27 06:53:51;;;;;;;47.00;25.85;;;;;;;-5.43;95.99;140959.50;1615118;87;21080;-71
2021/12/27 06:56:18;;;;;;;45.17;24.32;;;;;;;-5.29;95.89;140992.88;1615165;87;21587;-70
2021/12/27 06:58:44;;;;;;;45.05;23.45;;;;;;;-5.23;95.35;141007.75;1615255;89;21587;-69
2021/12/27 07:01:11;;;;;;;42.98;23.83;;;;;;;-5.17;95.29;141022.58;1614929;87;21037;-67
2021/12/27 07:03:37;;;;;;;37.95;20.97;;;;;;;-5.06;95.30;141049.81;1615214;87;21061;-67
2021/12/27 07:06:04;;;;;;;43.60;22.27;;;;;;;-4.93;94.91;141080.75;1615255;89;21034;-69
2021/12/27 07:08:30;;;;;;;40.50;22.90;;;;;;;-4.95;94.14;141074.56;1615147;87;21097;-67
2021/12/27 07:10:57;;;;;;;44.42;23.02;;;;;;;-5.12;94.03;141033.72;1615159;87;21120;-68
2021/12/27 07:13:23;;;;;;;38.58;20.55;;;;;;;-5.18;94.51;141020.12;1614654;87;21639;-75
2021/12/27 07:15:50;;;;;;;42.55;22.82;;;;;;;-5.25;94.55;141002.80;1592533;87;21126;-72
2021/12/27 07:18:23;;;;;;;35.73;21.62;;;;;;;-5.36;94.69;140975.59;1588266;90;21142;-72
2021/12/27 07:20:54;;;;;;;43.33;22.45;;;;;;;-5.38;95.04;140970.64;1588571;90;21046;-73
2021/12/27 07:23:20;;;;;;;42.62;21.95;;;;;;;-5.62;95.11;140913.78;1606076;87;21061;-72
2021/12/27 07:25:47;;;;;;;46.48;24.67;;;;;;;-5.82;95.86;140864.31;1610878;87;21602;-70
2021/12/27 07:28:14;;;;;;;43.63;22.93;;;;;;;-5.96;96.59;140832.19;1590626;89;21066;-68
2021/12/27 07:30:41;;;;;;;45.50;25.82;;;;;;;-6.06;97.20;140806.25;1589528;89;21206;-69
2021/12/27 07:33:08;;;;;;;46.37;26.30;;;;;;;-6.13;97.43;140791.44;1560500;91;21141;-71
2021/12/27 07:35:35;;;;;;;46.40;26.77;;;;;;;-6.03;97.69;140814.92;1589774;89;21037;-71
2021/12/27 07:38:02;;;;;;;45.55;22.45;;;;;;;-5.81;97.99;140868.00;1582008;90;21059;-71
2021/12/27 07:40:29;;;;;;;46.88;24.20;;;;;;;-5.75;97.93;140881.59;1613714;88;21101;-67
2021/12/27 07:42:56;;;;;;;45.58;22.73;;;;;;;-5.85;97.69;140858.14;1587823;90;21541;-70
2021/12/27 07:45:23;;;;;;;42.13;23.73;;;;;;;-5.98;97.92;140826.02;1613729;88;21054;-73
2021/12/27 07:47:50;;;;;;;47.27;25.50;;;;;;;-6.02;98.18;140817.38;1587851;90;21075;-74
2021/12/27 07:50:17;;;;;;;50.12;28.40;;;;;;;-5.90;98.55;140847.00;1613890;88;21062;-73
2021/12/27 07:52:43;;;;;;;53.15;29.07;;;;;;;-5.72;98.67;140889.05;1587684;89;21068;-71
2021/12/27 07:55:09;;;;;;;47.53;25.72;;;;;;;-5.64;98.33;140907.59;1550010;90;21114;-72
2021/12/27 07:57:36;;;;;;;43.73;23.57;;;;;;;-5.48;98.43;140948.38;1565207;92;21081;-73
2021/12/27 08:00:07;;;;;;;45.28;22.98;;;;;;;-5.47;97.68;140950.88;1565214;90;21104;-70
2021/12/27 08:02:36;;;;;;;;;;;;;;;-5.60;97.25;140918.69;1567493;92;21547;-73
2021/12/27 08:05:04;;;;;;;37.83;20.37;;;;;;;-5.78;97.35;140875.41;1565167;92;20151;-72
2021/12/27 08:07:30;;;;;;;58.98;28.77;;;;;;;-5.82;97.76;140864.31;1565298;92;21049;-76
2021/12/27 08:09:58;;;;;;;57.20;30.17;;;;;;;-5.72;98.25;140889.05;1565530;90;21089;-74
2021/12/27 08:12:24;;;;;;;64.03;33.45;;;;;;;-5.56;98.36;140928.59;1537319;90;21078;-73
2021/12/27 08:14:50;;;;;;;81.85;34.48;;;;;;;-5.32;98.47;140985.47;1565177;92;21046;-71
2021/12/27 08:17:17;;;;;;;71.42;33.00;;;;;;;-5.09;98.32;141042.41;1565178;90;21597;-72
2021/12/27 08:19:47;;;;;;;55.70;29.25;;;;;;;-4.85;97.80;141099.30;1565212;90;21559;-71
2021/12/27 08:22:14;;;;;;;57.65;28.10;;;;;;;-4.68;97.24;141140.11;1569729;89;21160;-72
2021/12/27 08:24:40;;;;;;;53.08;30.12;;;;;;;-4.54;96.60;141173.56;1560588;91;21636;-68
2021/12/27 08:27:07;;;;;;;65.52;32.73;;;;;;;-4.42;96.05;141203.27;1590022;89;21081;-69
2021/12/27 08:29:34;;;;;;;56.83;29.15;;;;;;;-4.33;95.36;141225.53;1596331;89;21090;-74
2021/12/27 08:32:02;;;;;;;58.28;30.92;;;;;;;-4.25;94.89;141245.37;1602681;88;21075;-74
2021/12/27 08:34:31;;;;;;;53.58;29.00;;;;;;;-4.18;94.37;141262.66;1597852;89;21045;-72
2021/12/27 08:36:59;;;;;;;52.95;30.05;;;;;;;-4.07;93.61;141287.42;1601024;89;21033;-69
2021/12/27 08:39:26;;;;;;;49.03;26.97;;;;;;;-4.02;92.79;141299.81;1600580;89;21137;-73
2021/12/27 08:41:53;;;;;;;46.55;25.85;;;;;;;-4.18;90.87;141262.66;1601377;89;21049;-68
2021/12/27 08:44:19;;;;;;;53.02;26.60;;;;;;;-4.42;91.34;141203.27;1600068;87;21653;-67
2021/12/27 08:46:46;;;;;;;51.18;25.65;;;;;;;-4.79;91.27;141114.13;1596852;89;21537;-60
2021/12/27 08:49:13;;;;;;;48.90;25.92;;;;;;;-5.10;92.16;141038.67;1603910;87;21054;-67
2021/12/27 08:51:39;;;;;;;42.85;24.72;;;;;;;-5.39;93.00;140969.42;1600084;89;21216;-60
2021/12/27 08:54:06;;;;;;;45.65;24.57;;;;;;;-5.47;93.94;140949.59;1601951;87;21057;-64
2021/12/27 08:56:33;;;;;;;45.58;24.27;;;;;;;-5.56;94.24;140927.38;1601943;87;21022;-60
2021/12/27 08:59:00;;;;;;;53.35;25.02;;;;;;;-5.50;94.71;140943.41;1599717;87;21050;-60
2021/12/27 09:01:27;;;;;;;50.83;28.05;;;;;;;-5.44;94.65;140957.05;1610952;87;21077;-67
2021/12/27 09:03:53;;;;;;;50.05;26.77;;;;;;;-5.30;94.90;140990.42;1610974;87;21062;-66
2021/12/27 09:06:20;;;;;;;52.23;25.77;;;;;;;-5.34;94.29;140981.78;1600121;87;21233;-63
2021/12/27 09:08:49;;;;;;;49.55;24.20;;;;;;;-5.33;94.30;140983.02;1602258;88;21061;-60
2021/12/27 09:11:15;;;;;;;45.08;23.75;;;;;;;-5.32;94.58;140985.47;1602353;87;21037;-61
2021/12/27 09:13:42;;;;;;;48.10;24.10;;;;;;;-5.34;94.43;140980.52;1600149;89;21077;-60
2021/12/27 09:16:11;;;;;;;51.70;26.62;;;;;;;-5.41;94.62;140964.47;1598549;87;21437;-57
2021/12/27 09:18:39;;;;;;;47.10;25.08;;;;;;;-5.50;94.65;140943.41;1588377;90;21654;-61
2021/12/27 09:21:07;;;;;;;45.35;24.75;;;;;;;-5.45;95.12;140955.78;1603415;89;21046;-62
2021/12/27 09:23:34;;;;;;;40.83;21.05;;;;;;;-5.42;95.18;140960.73;1615132;87;21554;-63
2021/12/27 09:26:00;;;;;;;42.50;20.12;;;;;;;-5.42;95.15;140960.73;1611800;89;21617;-63
2021/12/27 09:28:28;;;;;;;38.50;19.75;;;;;;;-5.55;95.02;140931.05;1603273;87;21124;-63
2021/12/27 09:30:57;;;;;;;49.05;24.30;;;;;;;-5.61;95.57;140915.00;1604384;87;21042;-66
2021/12/27 09:33:24;;;;;;;39.95;22.52;;;;;;;-5.73;95.61;140886.55;1614920;87;21069;-64
2021/12/27 09:35:53;;;;;;;41.95;22.48;;;;;;;-5.83;95.81;140861.83;1607896;89;21112;-62
2021/12/27 09:38:20;;;;;;;41.13;20.20;;;;;;;-5.94;96.25;140837.14;1588969;89;21046;-60
2021/12/27 09:40:46;;;;;;;46.18;22.30;;;;;;;-5.94;96.68;140837.14;1590935;89;21098;-59
2021/12/27 09:43:13;;;;;;;45.55;22.52;;;;;;;-5.91;97.03;140843.28;1588353;89;21038;-63
2021/12/27 09:45:40;;;;;;;51.05;25.25;;;;;;;-5.81;97.18;140866.78;1588381;90;21610;-62
2021/12/27 09:48:08;;;;;;;46.70;22.25;;;;;;;-5.75;97.13;140881.59;1588511;90;21082;-63
2021/12/27 09:50:40;;;;;;;46.18;22.90;;;;;;;-5.70;97.12;140895.23;1588393;90;21085;-63
2021/12/27 09:53:07;;;;;;;49.10;23.87;;;;;;;-5.57;97.26;140924.86;1588556;90;21042;-59
2021/12/27 09:55:35;;;;;;;51.05;24.87;;;;;;;-5.42;97.30;140961.95;1588309;90;21062;-66
2021/12/27 09:58:02;;;;;;;50.92;26.85;;;;;;;-5.16;97.54;141025.08;1588584;90;21081;-63
2021/12/27 10:00:29;;;;;;;53.87;28.10;;;;;;;-4.88;97.38;141093.13;1588314;90;21081;-64
2021/12/27 10:02:57;;;;;;;49.60;25.32;;;;;;;-4.65;96.67;141148.80;1588779;90;21533;-61
2021/12/27 10:05:28;;;;;;;45.85;25.23;;;;;;;-4.55;95.11;141171.05;1588473;90;21559;-66
2021/12/27 10:07:57;;;;;;;47.43;24.15;;;;;;;-4.63;94.53;141153.77;1588383;90;21082;-67
2021/12/27 10:10:23;;;;;;;50.25;24.07;;;;;;;-4.96;94.20;141072.06;1588713;90;21093;-65
2021/12/27 10:12:50;;;;;;;44.55;22.87;;;;;;;-5.06;95.04;141049.81;1588559;90;21527;-61
2021/12/27 10:15:22;;;;;;;47.27;22.82;;;;;;;-5.17;94.93;141022.58;1594516;89;21528;-64
2021/12/27 10:17:50;;;;;;;50.40;25.50;;;;;;;-5.25;95.49;141002.80;1610090;87;21117;-62
2021/12/27 10:20:21;;;;;;;51.73;25.52;;;;;;;-5.36;95.62;140975.59;1601543;89;21568;-60
2021/12/27 10:22:54;;;;;;;;;;;;;;;-5.40;95.91;140966.91;1602546;89;21038;-67
2021/12/27 10:25:25;;;;;;;58.30;28.12;;;;;;;-5.23;96.58;141007.75;1598100;89;20172;-67
2021/12/27 10:27:55;;;;;;;57.00;27.80;;;;;;;-5.07;96.20;141047.31;1601421;87;21069;-62
2021/12/27 10:30:27;;;;;;;48.90;26.33;;;;;;;-4.88;96.25;141093.13;1603084;89;21555;-66
2021/12/27 10:33:21;;;;;;;;;;;;;;;-4.66;95.95;141146.30;1609773;87;21531;-63
2021/12/27 10:35:53;;;;;;;45.88;23.15;;;;;;;-4.54;94.88;141173.56;1599801;88;20118;-71
2021/12/27 10:38:32;;;;;;;47.25;24.02;;;;;;;-4.81;94.18;141109.17;1593547;89;21595;-68
2021/12/27 10:41:04;;;;;;;42.03;21.95;;;;;;;-4.95;94.46;141074.56;1590170;90;21073;-71
2021/12/27 10:43:46;;;;;;;46.45;21.60;;;;;;;-5.21;94.78;141012.70;1590007;90;21601;-65
2021/12/27 10:46:17;;;;;;;50.23;24.30;;;;;;;-5.47;95.21;140949.59;1589982;90;21756;-72
2021/12/27 10:48:57;;;;;;;46.40;23.18;;;;;;;-5.62;96.24;140912.50;1590495;90;21535;-70
2021/12/27 10:51:28;;;;;;;54.70;25.77;;;;;;;-5.82;96.62;140865.55;1590477;90;21109;-67
2021/12/27 10:53:59;;;;;;;56.68;28.75;;;;;;;-5.94;97.43;140835.92;1590409;90;21142;-66
2021/12/27 10:56:31;;;;;;;50.03;25.02;;;;;;;-5.74;98.28;140885.31;1590564;90;21615;-64
2021/12/27 10:59:00;;;;;;;47.90;23.35;;;;;;;-5.55;98.18;140931.05;1587572;90;21086;-67
2021/12/27 11:01:29;;;;;;;43.65;20.77;;;;;;;-5.52;97.82;140938.50;1590275;90;21139;-68
2021/12/27 11:04:01;;;;;;;49.88;23.52;;;;;;;-5.61;97.64;140915.00;1590432;90;21096;-66
2021/12/27 11:06:30;;;;;;;49.05;21.68;;;;;;;-5.78;97.65;140875.41;1590133;90;21050;-64
2021/12/27 11:08:58;;;;;;;53.23;25.30;;;;;;;-5.80;98.25;140869.23;1566789;90;21084;-66
2021/12/27 11:11:26;;;;;;;51.45;26.00;;;;;;;-5.85;98.31;140858.14;1553646;91;21156;-62
2021/12/27 11:13:57;;;;;;;47.93;23.30;;;;;;;-5.76;98.78;140879.14;1557930;92;21119;-64
2021/12/27 11:16:26;;;;;;;47.23;22.27;;;;;;;-5.55;99.11;140931.05;1564596;89;21084;-69
2021/12/27 11:18:55;;;;;;;45.50;22.45;;;;;;;-5.28;99.13;140995.38;1564823;90;21055;-63
2021/12/27 11:21:29;;;;;;;48.65;26.05;;;;;;;-5.24;97.95;141006.52;1556696;92;21080;-64
2021/12/27 11:23:56;;;;;;;38.95;20.75;;;;;;;-5.38;97.59;140971.88;1555219;92;21616;-65
2021/12/27 11:26:31;;;;;;;39.88;21.40;;;;;;;-5.59;97.56;140921.19;1556516;92;21087;-63
2021/12/27 11:29:20;;;;;;;46.18;22.00;;;;;;;-5.86;98.22;140855.64;1556508;92;21496;-65